Measham, United Kingdom
Current Conditions -  °F | °C
As of 8:50 PM on Thursday 18 Dec 2014 (Local Time) from EGNX Reporting Station
Broken Clouds Broken Clouds  
Wind Chill: 55°   Ceiling: 2200
Heat Index: 55°   Visibility: 6mi
Dew Point: 50°   Wind: 25mph
Humidity: 82%   Direction: 220°SW
Pressure: 29.65"   Gusts: NA
Location:  52.71°N, 1.51°W
Report Text: EGNX 182050Z 22022KT 9999 BKN022 13/10 Q1004
Loading
Personal Weather Stations






























Interactive Weather Map New forecast layout! Learn more

10-Day Weather Forecast

Advertisements
Track Severe Weather on mobile